createdAt,value
2019-01-02T00:00:56.990Z,23.53
2019-01-02T00:03:26.206Z,23.07
2019-01-02T00:05:55.146Z,20.03
2019-01-02T00:08:23.741Z,25.53
2019-01-02T00:10:52.314Z,24.30
2019-01-02T00:13:20.997Z,24.83
2019-01-02T00:15:49.705Z,27.70
2019-01-02T00:18:18.579Z,22.50
2019-01-02T00:20:47.056Z,22.60
2019-01-02T00:23:16.028Z,20.53
2019-01-02T00:25:44.642Z,19.73
2019-01-02T00:28:13.722Z,22.50
2019-01-02T00:30:42.734Z,17.90
2019-01-02T00:33:12.328Z,21.73
2019-01-02T00:35:41.118Z,21.10
2019-01-02T00:38:09.710Z,21.23
2019-01-02T00:40:38.381Z,17.77
2019-01-02T00:43:07.446Z,17.17
2019-01-02T00:45:35.961Z,17.43
2019-01-02T00:48:04.637Z,16.30
2019-01-02T00:50:33.540Z,19.03
2019-01-02T00:53:02.238Z,20.33
2019-01-02T00:55:30.809Z,20.00
2019-01-02T00:57:59.371Z,22.03
2019-01-02T01:00:30.560Z,23.97
2019-01-02T01:02:59.265Z,20.97
2019-01-02T01:05:28.515Z,20.40
2019-01-02T01:07:57.016Z,20.13
2019-01-02T01:10:25.380Z,18.87
2019-01-02T01:12:53.956Z,19.00
2019-01-02T01:15:22.662Z,19.03
2019-01-02T01:17:51.324Z,15.63
2019-01-02T01:20:20.112Z,18.83
2019-01-02T01:22:48.722Z,17.70
2019-01-02T01:25:17.383Z,16.33
2019-01-02T01:27:46.074Z,19.07
2019-01-02T01:30:14.766Z,17.23
2019-01-02T01:32:43.436Z,18.67
2019-01-02T01:35:13.185Z,17.13
2019-01-02T01:37:45.770Z,16.57
2019-01-02T01:40:14.423Z,18.43
2019-01-02T01:42:43.728Z,18.90
2019-01-02T01:45:12.626Z,17.47
2019-01-02T01:47:41.081Z,18.90
2019-01-02T01:50:09.985Z,20.30
2019-01-02T01:52:38.688Z,20.40
2019-01-02T01:55:07.344Z,16.40
2019-01-02T01:57:36.229Z,16.53
2019-01-02T02:00:08.842Z,19.67
2019-01-02T02:02:37.726Z,18.30
2019-01-02T02:05:06.410Z,19.93
2019-01-02T02:07:34.792Z,19.50
2019-01-02T02:10:04.306Z,17.67
2019-01-02T02:12:32.761Z,13.97
2019-01-02T02:15:01.275Z,16.70
2019-01-02T02:17:29.836Z,15.47
2019-01-02T02:19:58.503Z,18.67
2019-01-02T02:22:27.416Z,18.23
2019-01-02T02:24:56.081Z,17.53
2019-01-02T02:27:24.752Z,18.30
2019-01-02T02:29:53.490Z,22.03
2019-01-02T02:32:21.972Z,15.77
2019-01-02T02:34:50.628Z,17.23
2019-01-02T02:37:24.557Z,14.23
2019-01-02T02:39:53.102Z,13.57
2019-01-02T02:42:21.614Z,18.57
2019-01-02T02:44:50.387Z,15.93
2019-01-02T02:47:18.858Z,18.03
2019-01-02T02:49:48.481Z,17.47
2019-01-02T02:52:16.742Z,18.20
2019-01-02T02:54:45.428Z,18.90
2019-01-02T02:57:13.902Z,19.13
2019-01-02T02:59:42.201Z,16.13
2019-01-02T03:02:10.446Z,15.67
2019-01-02T03:04:45.550Z,16.60
2019-01-02T03:07:14.379Z,17.30
2019-01-02T03:09:43.477Z,17.07
2019-01-02T03:12:12.080Z,18.20
2019-01-02T03:14:40.634Z,16.70
2019-01-02T03:17:09.335Z,14.67
2019-01-02T03:19:44.081Z,15.20
2019-01-02T03:22:12.538Z,17.90
2019-01-02T03:24:41.014Z,17.57
2019-01-02T03:27:09.729Z,15.13
2019-01-02T03:29:38.289Z,17.60
2019-01-02T03:32:06.870Z,19.70
2019-01-02T03:34:35.589Z,17.87
2019-01-02T03:37:04.230Z,15.30
2019-01-02T03:39:35.702Z,16.33
2019-01-02T03:42:04.387Z,16.00
2019-01-02T03:44:33.053Z,19.57
2019-01-02T03:47:01.774Z,18.10
2019-01-02T03:49:30.626Z,18.87
2019-01-02T03:51:59.321Z,17.17
2019-01-02T03:54:28.029Z,15.93
2019-01-02T03:56:56.690Z,16.13
2019-01-02T03:59:25.388Z,15.63
2019-01-02T04:01:54.187Z,14.90
2019-01-02T04:04:22.547Z,16.30
2019-01-02T04:06:51.029Z,17.60
2019-01-02T04:09:19.434Z,16.87
2019-01-02T04:11:47.985Z,17.63
2019-01-02T04:14:16.668Z,17.63
2019-01-02T04:16:45.485Z,19.97
2019-01-02T04:19:14.261Z,16.80
2019-01-02T04:21:42.955Z,17.70
2019-01-02T04:24:11.646Z,17.27
2019-01-02T04:26:40.310Z,16.63
2019-01-02T04:29:08.985Z,15.97
2019-01-02T04:31:38.181Z,17.70
2019-01-02T04:34:06.563Z,17.07
2019-01-02T04:36:35.242Z,20.53
2019-01-02T04:39:05.092Z,16.53
2019-01-02T04:41:36.504Z,16.77
2019-01-02T04:44:05.018Z,16.00
2019-01-02T04:46:33.671Z,19.20
2019-01-02T04:49:01.944Z,20.50
2019-01-02T04:51:30.662Z,16.87
2019-01-02T04:53:59.318Z,17.67
2019-01-02T04:56:28.010Z,19.23
2019-01-02T04:58:56.721Z,17.77
2019-01-02T05:01:25.367Z,20.23
2019-01-02T05:03:54.153Z,17.13
2019-01-02T05:06:22.269Z,18.47
2019-01-02T05:08:50.520Z,19.37
2019-01-02T05:11:19.098Z,17.13
2019-01-02T05:13:47.802Z,19.23
2019-01-02T05:16:16.782Z,16.87
2019-01-02T05:18:45.345Z,18.50
2019-01-02T05:21:14.262Z,16.10
2019-01-02T05:23:42.931Z,16.63
2019-01-02T05:26:11.614Z,19.53
2019-01-02T05:28:40.322Z,19.33
2019-01-02T05:31:08.983Z,19.33
2019-01-02T05:33:37.672Z,20.03
2019-01-02T05:36:06.371Z,20.43
2019-01-02T05:38:35.042Z,18.83
2019-01-02T05:41:03.734Z,18.20
2019-01-02T05:43:38.205Z,16.87
2019-01-02T05:46:06.429Z,15.67
2019-01-02T05:48:34.913Z,18.63
2019-01-02T05:51:03.323Z,19.70
2019-01-02T05:53:31.863Z,18.40
2019-01-02T05:56:00.550Z,16.47
2019-01-02T05:58:29.270Z,19.47
2019-01-02T06:00:57.743Z,16.27
2019-01-02T06:03:26.407Z,18.13
2019-01-02T06:05:55.207Z,17.03
2019-01-02T06:08:23.476Z,21.17
2019-01-02T06:10:51.861Z,18.87
2019-01-02T06:13:20.658Z,21.13
2019-01-02T06:15:49.421Z,18.60
2019-01-02T06:18:18.114Z,23.97
2019-01-02T06:20:46.834Z,19.93
2019-01-02T06:23:15.178Z,17.40
2019-01-02T06:25:43.953Z,19.73
2019-01-02T06:28:12.663Z,19.30
2019-01-02T06:30:41.342Z,15.70
2019-01-02T06:33:10.125Z,18.93
2019-01-02T06:35:38.533Z,19.53
2019-01-02T06:38:07.195Z,19.53
2019-01-02T06:40:35.458Z,20.97
2019-01-02T06:43:04.181Z,17.03
2019-01-02T06:45:34.472Z,18.83
2019-01-02T06:48:02.866Z,18.70
2019-01-02T06:50:31.486Z,19.63
2019-01-02T06:53:00.112Z,19.23
2019-01-02T06:55:28.413Z,20.67
2019-01-02T06:57:56.830Z,15.10
2019-01-02T07:00:33.776Z,18.33
2019-01-02T07:03:02.551Z,15.67
2019-01-02T07:05:31.334Z,18.90
2019-01-02T07:07:59.822Z,15.87
2019-01-02T07:10:28.104Z,16.07
2019-01-02T07:12:56.370Z,17.67
2019-01-02T07:15:24.853Z,16.83
2019-01-02T07:17:53.558Z,17.87
2019-01-02T07:20:22.217Z,17.73
2019-01-02T07:22:50.894Z,20.37
2019-01-02T07:25:19.607Z,18.90
2019-01-02T07:27:48.269Z,19.17
2019-01-02T07:30:19.043Z,17.17
2019-01-02T07:32:48.113Z,16.00
2019-01-02T07:36:00.653Z,14.10
2019-01-02T07:39:10.586Z,14.07
2019-01-02T07:42:29.980Z,16.87
2019-01-02T07:45:40.291Z,14.30
2019-01-02T07:48:31.457Z,13.97
2019-01-02T07:51:56.434Z,15.70
2019-01-02T07:54:55.034Z,12.80
2019-01-02T07:57:58.818Z,15.37
2019-01-02T08:01:19.970Z,15.90
2019-01-02T08:04:48.133Z,18.90
2019-01-02T08:08:07.143Z,15.03
2019-01-02T08:11:13.554Z,15.27
2019-01-02T08:14:32.242Z,12.33
2019-01-02T08:17:31.198Z,14.40
2019-01-02T08:20:35.777Z,14.87
2019-01-02T08:23:46.618Z,14.67
2019-01-02T08:27:11.657Z,14.10
2019-01-02T08:30:23.798Z,13.67
2019-01-02T08:33:34.214Z,13.97
2019-01-02T08:36:59.185Z,14.67
2019-01-02T08:39:55.254Z,17.97
2019-01-02T08:43:12.190Z,18.60
2019-01-02T08:46:16.954Z,13.57
2019-01-02T08:49:39.991Z,16.93
2019-01-02T08:52:55.025Z,16.07
2019-01-02T08:55:51.934Z,14.50
2019-01-02T08:59:04.481Z,14.93
2019-01-02T09:02:18.606Z,15.60
2019-01-02T09:05:34.619Z,15.50
2019-01-02T09:08:39.202Z,13.93
2019-01-02T09:11:46.762Z,13.37
2019-01-02T09:14:59.851Z,14.17
2019-01-02T09:18:09.945Z,14.30
2019-01-02T09:21:03.249Z,10.83
2019-01-02T09:24:14.891Z,12.07
2019-01-02T09:27:10.486Z,16.60
2019-01-02T09:30:31.308Z,13.77
2019-01-02T09:33:53.706Z,14.40
2019-01-02T09:37:10.173Z,14.27
2019-01-02T09:40:12.720Z,16.23
2019-01-02T09:43:01.305Z,12.03
2019-01-02T09:46:19.358Z,10.97
2019-01-02T09:48:56.329Z,12.50
2019-01-02T09:52:03.363Z,11.37
2019-01-02T09:55:11.771Z,11.43
2019-01-02T09:58:26.893Z,12.53
2019-01-02T10:01:20.790Z,13.33
2019-01-02T10:04:18.626Z,11.47
2019-01-02T10:07:24.852Z,8.53
2019-01-02T10:10:17.343Z,11.30
2019-01-02T10:13:07.046Z,10.77
2019-01-02T10:15:59.871Z,11.90
2019-01-02T10:18:49.264Z,8.13
2019-01-02T10:21:57.061Z,12.83
2019-01-02T10:25:17.759Z,15.77
2019-01-02T10:28:28.806Z,10.87
2019-01-02T10:31:53.835Z,11.77
2019-01-02T10:34:57.540Z,9.43
2019-01-02T10:38:16.409Z,11.53
2019-01-02T10:41:31.143Z,15.07
2019-01-02T10:44:53.311Z,16.03
2019-01-02T10:48:00.473Z,10.73
2019-01-02T10:51:07.316Z,15.37
2019-01-02T10:54:19.200Z,10.53
2019-01-02T10:57:38.715Z,10.83
2019-01-02T11:01:03.432Z,14.20
2019-01-02T11:04:18.312Z,15.13
2019-01-02T11:07:14.635Z,15.33
2019-01-02T11:10:43.360Z,11.93
2019-01-02T11:13:39.545Z,9.30
2019-01-02T11:17:01.514Z,9.53
2019-01-02T11:20:16.363Z,10.60
2019-01-02T11:23:38.013Z,10.17
2019-01-02T11:26:45.166Z,9.83
2019-01-02T11:29:49.407Z,9.27
2019-01-02T11:32:55.046Z,9.33
2019-01-02T11:36:09.835Z,9.53
2019-01-02T11:39:08.998Z,7.67
2019-01-02T11:42:10.388Z,8.33
2019-01-02T11:45:04.763Z,9.97
2019-01-02T11:47:33.453Z,9.57
2019-01-02T11:50:01.797Z,8.33
2019-01-02T11:52:34.209Z,10.57
2019-01-02T11:55:02.849Z,7.77
2019-01-02T11:57:31.445Z,10.73
2019-01-02T12:00:00.170Z,10.97
2019-01-02T12:02:34.092Z,11.03
2019-01-02T12:04:59.350Z,8.43
2019-01-02T12:07:28.649Z,10.83
2019-01-02T12:09:57.737Z,11.40
2019-01-02T12:12:26.425Z,8.87
2019-01-02T12:14:55.139Z,9.20
2019-01-02T12:17:24.105Z,8.90
2019-01-02T12:19:53.210Z,8.57
2019-01-02T12:22:29.082Z,7.13
2019-01-02T12:25:00.610Z,15.03
2019-01-02T12:27:29.317Z,8.40
2019-01-02T12:29:57.815Z,11.60
2019-01-02T12:36:00.711Z,8.90
2019-01-02T12:38:29.473Z,15.43
2019-01-02T12:40:58.158Z,10.10
2019-01-02T12:43:26.686Z,39.40
2019-01-02T12:45:55.332Z,9.07
2019-01-02T12:48:23.870Z,23.87
2019-01-02T12:50:53.239Z,8.63
2019-01-02T12:53:21.991Z,11.27
2019-01-02T12:55:50.271Z,11.13
2019-01-02T12:58:19.266Z,10.37
2019-01-02T13:00:59.635Z,9.60
2019-01-02T13:04:07.964Z,10.43
2019-01-02T13:07:28.485Z,9.00
2019-01-02T13:10:43.440Z,8.63
2019-01-02T13:13:43.228Z,7.57
2019-01-02T13:16:28.340Z,10.70
2019-01-02T13:19:24.741Z,8.67
2019-01-02T13:22:23.698Z,8.43
2019-01-02T13:25:20.167Z,11.93
2019-01-02T13:27:56.877Z,6.30
2019-01-02T13:30:57.470Z,6.57
2019-01-02T13:34:13.861Z,6.50
2019-01-02T13:37:08.374Z,8.70
2019-01-02T13:40:22.561Z,7.43
2019-01-02T13:43:26.456Z,8.57
2019-01-02T13:46:40.863Z,8.70
2019-01-02T13:49:39.381Z,11.07
2019-01-02T13:52:08.114Z,8.53
2019-01-02T13:54:37.055Z,7.67
2019-01-02T13:57:05.666Z,6.67
2019-01-02T13:59:35.134Z,7.37
2019-01-02T14:02:04.027Z,7.80
2019-01-02T14:04:34.176Z,7.67
2019-01-02T14:07:02.925Z,6.10
2019-01-02T14:09:35.444Z,6.80
2019-01-02T14:12:03.923Z,6.57
2019-01-02T14:14:32.587Z,7.43
2019-01-02T14:17:01.265Z,6.20
2019-01-02T14:19:29.972Z,7.37
2019-01-02T14:21:58.435Z,8.30
2019-01-02T14:24:27.114Z,8.87
2019-01-02T14:26:55.818Z,8.53
2019-01-02T14:29:24.307Z,9.67
2019-01-02T14:31:52.973Z,6.47
2019-01-02T14:34:22.767Z,6.30
2019-01-02T14:36:51.068Z,8.00
2019-01-02T14:39:19.635Z,8.00
2019-01-02T14:41:48.445Z,7.93
2019-01-02T14:44:18.116Z,12.37
2019-01-02T14:46:50.333Z,7.43
2019-01-02T14:49:18.096Z,9.47
2019-01-02T14:51:46.343Z,8.40
2019-01-02T14:54:15.039Z,8.80
2019-01-02T14:56:47.630Z,10.47
2019-01-02T14:59:16.394Z,6.13
2019-01-02T15:01:45.375Z,11.20
2019-01-02T15:04:13.803Z,7.97
2019-01-02T15:06:42.676Z,6.47
2019-01-02T15:09:11.155Z,8.00
2019-01-02T15:11:39.739Z,8.00
2019-01-02T15:14:08.400Z,7.67
2019-01-02T15:16:36.659Z,10.23
2019-01-02T15:19:05.406Z,7.97
2019-01-02T15:21:34.062Z,8.73
2019-01-02T15:24:02.737Z,9.33
2019-01-02T15:26:31.775Z,10.47
2019-01-02T15:29:00.220Z,9.80
2019-01-02T15:31:28.578Z,6.73
2019-01-02T15:33:57.307Z,11.17
2019-01-02T15:36:25.654Z,9.17
2019-01-02T15:38:54.722Z,8.60
2019-01-02T15:41:24.377Z,8.07
2019-01-02T15:43:52.609Z,9.50
2019-01-02T15:46:21.298Z,8.23
2019-01-02T15:48:50.034Z,8.60
2019-01-02T15:51:18.689Z,8.23
2019-01-02T15:53:47.375Z,8.70
2019-01-02T15:56:16.800Z,6.07
2019-01-02T15:58:45.248Z,8.30
2019-01-02T16:01:14.037Z,8.43
2019-01-02T16:03:43.049Z,9.80
2019-01-02T16:06:11.609Z,8.63
2019-01-02T16:08:40.317Z,9.13
2019-01-02T16:11:08.990Z,5.80
2019-01-02T16:13:38.689Z,6.30
2019-01-02T16:16:07.362Z,8.97
2019-01-02T16:18:36.090Z,7.87
2019-01-02T16:21:04.766Z,13.00
2019-01-02T16:23:33.125Z,9.53
2019-01-02T16:26:01.714Z,9.33
2019-01-02T16:28:30.386Z,9.53
2019-01-02T16:30:58.954Z,11.47
2019-01-02T16:33:27.370Z,9.80
2019-01-02T16:35:56.295Z,8.67
2019-01-02T16:38:24.621Z,9.03
2019-01-02T16:40:53.213Z,9.10
2019-01-02T16:43:21.898Z,7.53
2019-01-02T16:45:50.201Z,11.57
2019-01-02T16:48:18.680Z,9.63
2019-01-02T16:50:47.362Z,10.53
2019-01-02T16:53:16.060Z,12.07
2019-01-02T16:55:44.956Z,12.17
2019-01-02T16:58:13.305Z,13.60
2019-01-02T17:00:43.209Z,11.80
2019-01-02T17:03:11.597Z,12.77
2019-01-02T17:05:40.317Z,9.30
2019-01-02T17:08:08.622Z,10.97
2019-01-02T17:10:37.314Z,10.57
2019-01-02T17:13:05.843Z,22.30
2019-01-02T17:15:34.506Z,13.50
2019-01-02T17:18:03.359Z,10.23
2019-01-02T17:20:32.008Z,12.83
2019-01-02T17:23:00.665Z,9.43
2019-01-02T17:25:29.373Z,12.90
2019-01-02T17:27:58.866Z,10.57
2019-01-02T17:30:27.547Z,10.20
2019-01-02T17:32:56.238Z,11.83
2019-01-02T17:35:24.898Z,11.60
2019-01-02T17:37:53.415Z,10.67
2019-01-02T17:40:22.306Z,11.23
2019-01-02T17:42:50.998Z,11.93
2019-01-02T17:45:19.726Z,10.83
2019-01-02T17:47:48.167Z,12.20
2019-01-02T17:50:16.602Z,10.60
2019-01-02T17:52:45.301Z,12.50
2019-01-02T17:55:15.039Z,20.80
2019-01-02T17:57:43.390Z,33.60
2019-01-02T18:00:13.002Z,23.97
2019-01-02T18:02:47.631Z,24.40
2019-01-02T18:05:16.887Z,24.73
2019-01-02T18:07:45.607Z,29.63
2019-01-02T18:10:14.326Z,51.60
2019-01-02T18:12:42.668Z,38.20
2019-01-02T18:15:11.143Z,21.47
2019-01-02T18:17:39.943Z,21.60
2019-01-02T18:20:09.547Z,26.37
2019-01-02T18:22:39.785Z,28.53
2019-01-02T18:25:08.969Z,22.53
2019-01-02T18:27:38.529Z,18.40
2019-01-02T18:30:09.749Z,18.23
2019-01-02T18:32:38.588Z,23.30
2019-01-02T18:35:07.117Z,18.67
2019-01-02T18:37:35.796Z,26.20
2019-01-02T18:40:04.503Z,20.73
2019-01-02T18:42:34.157Z,25.63
2019-01-02T18:45:02.981Z,25.40
2019-01-02T18:47:54.306Z,56.07
2019-01-02T18:50:23.145Z,46.37
2019-01-02T18:52:51.851Z,82.13
2019-01-02T18:55:20.654Z,81.33
2019-01-02T18:57:49.377Z,35.47
2019-01-02T19:00:32.922Z,21.93
2019-01-02T19:03:12.088Z,22.10
2019-01-02T19:06:03.481Z,27.93
2019-01-02T19:08:47.068Z,22.10
2019-01-02T19:11:30.780Z,25.90
2019-01-02T19:14:02.496Z,51.93
2019-01-02T19:16:42.507Z,28.23
2019-01-02T19:19:21.182Z,33.77
2019-01-02T19:22:10.808Z,135.07
2019-01-02T19:24:57.121Z,67.93
2019-01-02T19:27:53.198Z,35.70
2019-01-02T19:30:35.374Z,36.37
2019-01-02T19:33:25.965Z,29.73
2019-01-02T19:35:56.708Z,25.10
2019-01-02T19:38:25.325Z,48.80
2019-01-02T19:40:53.705Z,74.63
2019-01-02T19:43:22.302Z,38.43
2019-01-02T19:45:51.170Z,30.53
2019-01-02T19:48:19.845Z,43.13
2019-01-02T19:50:48.358Z,32.70
2019-01-02T19:53:17.011Z,44.20
2019-01-02T19:55:45.478Z,41.30
2019-01-02T19:58:14.278Z,40.90
2019-01-02T20:00:44.715Z,25.83
2019-01-02T20:03:13.094Z,47.63
2019-01-02T20:05:41.480Z,77.23
2019-01-02T20:08:10.180Z,76.00
2019-01-02T20:10:38.829Z,46.03
2019-01-02T20:13:13.510Z,40.53
2019-01-02T20:15:42.165Z,46.73
2019-01-02T20:18:10.410Z,20.10
2019-01-02T20:20:39.137Z,45.67
2019-01-02T20:23:07.789Z,23.73
2019-01-02T20:25:36.273Z,25.03
2019-01-02T20:28:04.978Z,25.40
2019-01-02T20:30:34.437Z,27.93
2019-01-02T20:33:02.760Z,22.17
2019-01-02T20:35:31.181Z,19.27
2019-01-02T20:38:00.930Z,27.10
2019-01-02T20:40:29.601Z,29.00
2019-01-02T20:42:58.330Z,14.93
2019-01-02T20:45:26.989Z,11.93
2019-01-02T20:47:55.461Z,13.90
2019-01-02T20:50:24.181Z,14.30
2019-01-02T20:52:52.529Z,12.73
2019-01-02T20:55:21.105Z,13.13
2019-01-02T20:57:50.552Z,15.07
2019-01-02T21:00:19.141Z,24.07
2019-01-02T21:02:53.038Z,20.77
2019-01-02T21:05:21.795Z,22.63
2019-01-02T21:07:50.484Z,19.67
2019-01-02T21:10:19.201Z,20.27
2019-01-02T21:12:47.538Z,18.53
2019-01-02T21:15:16.263Z,20.00
2019-01-02T21:17:44.524Z,18.17
2019-01-02T21:20:13.103Z,17.83
2019-01-02T21:22:42.080Z,16.40
2019-01-02T21:25:10.684Z,20.43
2019-01-02T21:27:39.298Z,20.43
2019-01-02T21:30:08.654Z,22.20
2019-01-02T21:32:38.079Z,20.73
2019-01-02T21:35:06.839Z,21.00
2019-01-02T21:37:36.244Z,18.00
2019-01-02T21:40:04.690Z,19.23
2019-01-02T21:42:33.307Z,15.43
2019-01-02T21:45:01.990Z,19.80
2019-01-02T21:47:30.690Z,18.67
2019-01-02T21:49:59.054Z,20.63
2019-01-02T21:52:27.422Z,18.83
2019-01-02T21:54:55.721Z,21.70
2019-01-02T21:57:28.189Z,30.00
2019-01-02T21:59:57.289Z,23.97
2019-01-02T22:02:25.851Z,29.17
2019-01-02T22:05:00.313Z,27.60
2019-01-02T22:07:28.538Z,25.80
2019-01-02T22:09:56.934Z,29.53
2019-01-02T22:12:25.753Z,27.27
2019-01-02T22:14:54.193Z,26.20
2019-01-02T22:17:22.875Z,22.80
2019-01-02T22:19:51.601Z,23.97
2019-01-02T22:22:19.964Z,23.40
2019-01-02T22:24:48.790Z,23.00
2019-01-02T22:27:17.469Z,21.43
2019-01-02T22:29:46.153Z,24.03
2019-01-02T22:32:14.793Z,21.23
2019-01-02T22:34:43.304Z,22.50
2019-01-02T22:37:17.901Z,19.33
2019-01-02T22:39:46.389Z,21.27
2019-01-02T22:42:15.063Z,18.90
2019-01-02T22:44:43.770Z,18.20
2019-01-02T22:47:12.257Z,14.60
2019-01-02T22:49:40.925Z,11.77
2019-01-02T22:52:09.379Z,14.63
2019-01-02T22:54:37.846Z,13.40
2019-01-02T22:57:06.551Z,15.57
2019-01-02T22:59:34.943Z,19.70
2019-01-02T23:02:09.506Z,13.33
2019-01-02T23:04:56.210Z,14.60
2019-01-02T23:07:44.217Z,14.87
2019-01-02T23:10:32.026Z,15.23
2019-01-02T23:13:18.289Z,17.00
2019-01-02T23:16:06.478Z,8.90
2019-01-02T23:19:09.677Z,11.67
2019-01-02T23:22:12.580Z,18.03
2019-01-02T23:25:03.193Z,15.80
2019-01-02T23:28:03.085Z,20.53
2019-01-02T23:30:53.775Z,16.87
2019-01-02T23:33:47.612Z,14.83
2019-01-02T23:36:44.334Z,17.57
2019-01-02T23:39:25.705Z,16.20
2019-01-02T23:42:11.917Z,14.40
2019-01-02T23:44:58.979Z,21.77
2019-01-02T23:47:45.042Z,17.73
2019-01-02T23:50:32.318Z,14.40
2019-01-02T23:53:20.678Z,17.10
2019-01-02T23:56:06.154Z,13.30
2019-01-02T23:58:54.288Z,10.57
